ANA99 RJTT-RJBB
Flight info
| Callsign | ANA99 |
|---|---|
| Flight time | 0h 45m |
| Altitude | 28000 |
| Route | LAXAS Y56 TOHME Y54 KOHWA Y544 DUBKA |
| Aircraft | B77W/H-SDE1E2E3FGHIJ2J3J4J5M1RWXY/LB1D1 |
Departure
| Time | 2026-05-01 13:35 |
|---|---|
| Airport | Tokyo Haneda International Airport (RJTT) |
Arrival
| Time | 2026-05-01 14:20 |
|---|---|
| Airport | Kansai International Airport (RJBB) |
| Time | Latitude | Longitude | Altitude | Speed | Heading |
|---|---|---|---|---|---|
| 2026-05-01 12:48 | 35.55054 | 139.79040 | 32 ft | 0 kts | 239° |
| 2026-05-01 13:10 | 35.55060 | 139.79054 | 32 ft | 2 kts | 251° |
| 2026-05-01 13:10 | 35.55065 | 139.79074 | 32 ft | 2 kts | 261° |
| 2026-05-01 13:10 | 35.55066 | 139.79094 | 32 ft | 2 kts | 277° |
| 2026-05-01 13:10 | 35.55063 | 139.79114 | 31 ft | 2 kts | 292° |
| 2026-05-01 13:11 | 35.55055 | 139.79132 | 30 ft | 2 kts | 303° |
| 2026-05-01 13:11 | 35.55045 | 139.79148 | 30 ft | 2 kts | 308° |
| 2026-05-01 13:11 | 35.55036 | 139.79165 | 30 ft | 2 kts | 277° |
| 2026-05-01 13:11 | 35.55036 | 139.79185 | 30 ft | 2 kts | 263° |
| 2026-05-01 13:12 | 35.55039 | 139.79205 | 30 ft | 2 kts | 257° |
| 2026-05-01 13:12 | 35.55043 | 139.79225 | 30 ft | 2 kts | 253° |
| 2026-05-01 13:12 | 35.55048 | 139.79244 | 28 ft | 2 kts | 248° |
| 2026-05-01 13:12 | 35.55051 | 139.79252 | 28 ft | 0 kts | 244° |
| 2026-05-01 13:13 | 35.55051 | 139.79253 | 28 ft | 0 kts | 244° |
| 2026-05-01 13:21 | 35.55051 | 139.79252 | 28 ft | 1 kts | 244° |
| 2026-05-01 13:21 | 35.55040 | 139.79228 | 30 ft | 7 kts | 243° |
| 2026-05-01 13:22 | 35.55034 | 139.79171 | 30 ft | 7 kts | 289° |
| 2026-05-01 13:22 | 35.55068 | 139.79130 | 31 ft | 7 kts | 327° |
| 2026-05-01 13:22 | 35.55105 | 139.79102 | 33 ft | 0 kts | 329° |
| 2026-05-01 13:25 | 35.55112 | 139.79097 | 33 ft | 3 kts | 329° |
| 2026-05-01 13:25 | 35.55144 | 139.79074 | 32 ft | 9 kts | 330° |
| 2026-05-01 13:25 | 35.55202 | 139.79033 | 32 ft | 10 kts | 330° |
| 2026-05-01 13:26 | 35.55263 | 139.78990 | 32 ft | 10 kts | 330° |
| 2026-05-01 13:26 | 35.55324 | 139.78948 | 32 ft | 10 kts | 330° |
| 2026-05-01 13:26 | 35.55389 | 139.78939 | 32 ft | 10 kts | 22° |
| 2026-05-01 13:26 | 35.55421 | 139.78982 | 32 ft | 11 kts | 59° |
| 2026-05-01 13:27 | 35.55493 | 139.79043 | 31 ft | 11 kts | 348° |
| 2026-05-01 13:27 | 35.55559 | 139.79003 | 31 ft | 11 kts | 331° |
| 2026-05-01 13:27 | 35.55691 | 139.78911 | 30 ft | 12 kts | 330° |
| 2026-05-01 13:28 | 35.55845 | 139.78801 | 28 ft | 13 kts | 329° |
| 2026-05-01 13:28 | 35.55900 | 139.78762 | 28 ft | 15 kts | 330° |
| 2026-05-01 13:29 | 35.56122 | 139.78605 | 28 ft | 19 kts | 330° |
| 2026-05-01 13:29 | 35.56337 | 139.78435 | 30 ft | 16 kts | 297° |
| 2026-05-01 13:30 | 35.56179 | 139.78043 | 30 ft | 13 kts | 240° |
| 2026-05-01 13:31 | 35.56089 | 139.77851 | 30 ft | 13 kts | 240° |
| 2026-05-01 13:31 | 35.55953 | 139.77564 | 28 ft | 13 kts | 240° |
| 2026-05-01 13:32 | 35.55862 | 139.77373 | 28 ft | 13 kts | 236° |
| 2026-05-01 13:33 | 35.55741 | 139.77253 | 31 ft | 0 kts | 215° |
| 2026-05-01 13:33 | 35.55740 | 139.77252 | 31 ft | 1 kts | 215° |
| 2026-05-01 13:34 | 35.55630 | 139.77181 | 30 ft | 17 kts | 177° |
| 2026-05-01 13:34 | 35.54926 | 139.77668 | 31 ft | 131 kts | 150° |
| 2026-05-01 13:35 | 35.52964 | 139.79057 | 1089 ft | 168 kts | 157° |
| 2026-05-01 13:35 | 35.51921 | 139.79788 | 1809 ft | 181 kts | 158° |
| 2026-05-01 13:35 | 35.49412 | 139.81546 | 2398 ft | 241 kts | 155° |
| 2026-05-01 13:36 | 35.47799 | 139.82393 | 2617 ft | 260 kts | 179° |
| 2026-05-01 13:36 | 35.46063 | 139.81975 | 3346 ft | 255 kts | 216° |
| 2026-05-01 13:36 | 35.43664 | 139.78869 | 5111 ft | 255 kts | 233° |
| 2026-05-01 13:37 | 35.42483 | 139.77237 | 6143 ft | 256 kts | 233° |
| 2026-05-01 13:37 | 35.41297 | 139.75607 | 7108 ft | 257 kts | 233° |
| 2026-05-01 13:37 | 35.40103 | 139.73973 | 8098 ft | 258 kts | 233° |
| 2026-05-01 13:37 | 35.38901 | 139.72330 | 9066 ft | 260 kts | 233° |
| 2026-05-01 13:38 | 35.36440 | 139.68979 | 10712 ft | 275 kts | 232° |
| 2026-05-01 13:38 | 35.35095 | 139.67142 | 10995 ft | 305 kts | 232° |
| 2026-05-01 13:38 | 35.33602 | 139.65108 | 11263 ft | 335 kts | 232° |
| 2026-05-01 13:39 | 35.32008 | 139.62952 | 12095 ft | 347 kts | 231° |
| 2026-05-01 13:39 | 35.30361 | 139.60735 | 13137 ft | 355 kts | 231° |
| 2026-05-01 13:39 | 35.28684 | 139.58481 | 14148 ft | 361 kts | 231° |
| 2026-05-01 13:39 | 35.26982 | 139.56194 | 15160 ft | 366 kts | 231° |
| 2026-05-01 13:40 | 35.25254 | 139.53872 | 16138 ft | 372 kts | 231° |
| 2026-05-01 13:40 | 35.23501 | 139.51515 | 17098 ft | 378 kts | 231° |
| 2026-05-01 13:40 | 35.21717 | 139.49120 | 18044 ft | 384 kts | 231° |
| 2026-05-01 13:40 | 35.19910 | 139.46694 | 18892 ft | 389 kts | 231° |
| 2026-05-01 13:41 | 35.18076 | 139.44234 | 19770 ft | 393 kts | 231° |
| 2026-05-01 13:41 | 35.16249 | 139.41784 | 20636 ft | 397 kts | 231° |
| 2026-05-01 13:41 | 35.14379 | 139.39278 | 21493 ft | 402 kts | 231° |
| 2026-05-01 13:41 | 35.12484 | 139.36740 | 22316 ft | 406 kts | 231° |
| 2026-05-01 13:42 | 35.10569 | 139.34176 | 23117 ft | 411 kts | 230° |
| 2026-05-01 13:42 | 35.08631 | 139.31583 | 23762 ft | 416 kts | 230° |
| 2026-05-01 13:42 | 35.06673 | 139.28969 | 24411 ft | 419 kts | 231° |
| 2026-05-01 13:42 | 35.04869 | 139.26190 | 25072 ft | 417 kts | 240° |
| 2026-05-01 13:43 | 35.03487 | 139.23094 | 25926 ft | 413 kts | 247° |
| 2026-05-01 13:43 | 35.02412 | 139.19869 | 26875 ft | 408 kts | 253° |
| 2026-05-01 13:43 | 35.01713 | 139.16518 | 27507 ft | 408 kts | 259° |
| 2026-05-01 13:43 | 35.01178 | 139.13114 | 27550 ft | 409 kts | 260° |
| 2026-05-01 13:44 | 35.00661 | 139.09711 | 27559 ft | 410 kts | 260° |
| 2026-05-01 13:44 | 35.00111 | 139.06240 | 27577 ft | 423 kts | 259° |
| 2026-05-01 13:44 | 34.99522 | 139.02668 | 27587 ft | 436 kts | 259° |
| 2026-05-01 13:44 | 34.98938 | 138.98993 | 27585 ft | 446 kts | 261° |
| 2026-05-01 13:45 | 34.98569 | 138.95201 | 27580 ft | 455 kts | 266° |
| 2026-05-01 13:45 | 34.98376 | 138.91318 | 27583 ft | 462 kts | 267° |
| 2026-05-01 13:45 | 34.98189 | 138.87385 | 27592 ft | 468 kts | 267° |
| 2026-05-01 13:45 | 34.97996 | 138.83406 | 27591 ft | 471 kts | 267° |
| 2026-05-01 13:46 | 34.97796 | 138.79433 | 27596 ft | 469 kts | 267° |
| 2026-05-01 13:46 | 34.97588 | 138.75466 | 27587 ft | 468 kts | 267° |
| 2026-05-01 13:46 | 34.97377 | 138.71511 | 27583 ft | 467 kts | 267° |
| 2026-05-01 13:46 | 34.97163 | 138.67569 | 27587 ft | 465 kts | 267° |
| 2026-05-01 13:47 | 34.96949 | 138.63642 | 27591 ft | 464 kts | 267° |
| 2026-05-01 13:47 | 34.96734 | 138.59722 | 27591 ft | 462 kts | 267° |
| 2026-05-01 13:47 | 34.96516 | 138.55813 | 27588 ft | 461 kts | 267° |
| 2026-05-01 13:47 | 34.96135 | 138.51936 | 27590 ft | 461 kts | 263° |
| 2026-05-01 13:48 | 34.95473 | 138.48104 | 27596 ft | 462 kts | 258° |
| 2026-05-01 13:48 | 34.94545 | 138.44350 | 27600 ft | 462 kts | 256° |
| 2026-05-01 13:48 | 34.93597 | 138.40605 | 27591 ft | 461 kts | 256° |
| 2026-05-01 13:48 | 34.92663 | 138.36894 | 27187 ft | 456 kts | 256° |
| 2026-05-01 13:49 | 34.91757 | 138.33264 | 26588 ft | 452 kts | 257° |
| 2026-05-01 13:49 | 34.90848 | 138.29603 | 25965 ft | 450 kts | 257° |
| 2026-05-01 13:49 | 34.89946 | 138.25960 | 25373 ft | 448 kts | 257° |
| 2026-05-01 13:49 | 34.89048 | 138.22338 | 24867 ft | 445 kts | 257° |
| 2026-05-01 13:50 | 34.88157 | 138.18742 | 24403 ft | 441 kts | 257° |
| 2026-05-01 13:50 | 34.87271 | 138.15177 | 23963 ft | 439 kts | 257° |
| 2026-05-01 13:50 | 34.86389 | 138.11626 | 23504 ft | 436 kts | 257° |
| 2026-05-01 13:50 | 34.85513 | 138.08106 | 23088 ft | 433 kts | 258° |
| 2026-05-01 13:51 | 34.84642 | 138.04618 | 22612 ft | 430 kts | 258° |
| 2026-05-01 13:51 | 34.83775 | 138.01154 | 22202 ft | 425 kts | 258° |
| 2026-05-01 13:51 | 34.82919 | 137.97732 | 21827 ft | 420 kts | 258° |
| 2026-05-01 13:51 | 34.82072 | 137.94347 | 21462 ft | 416 kts | 259° |
| 2026-05-01 13:52 | 34.81233 | 137.91002 | 21067 ft | 412 kts | 259° |
| 2026-05-01 13:52 | 34.80398 | 137.87675 | 20688 ft | 409 kts | 259° |
| 2026-05-01 13:52 | 34.79571 | 137.84384 | 20304 ft | 406 kts | 259° |
| 2026-05-01 13:52 | 34.78749 | 137.81113 | 19940 ft | 403 kts | 259° |
| 2026-05-01 13:53 | 34.77931 | 137.77863 | 19587 ft | 400 kts | 259° |
| 2026-05-01 13:53 | 34.76309 | 137.71437 | 18917 ft | 395 kts | 259° |
| 2026-05-01 13:53 | 34.75505 | 137.68257 | 18583 ft | 392 kts | 260° |
| 2026-05-01 13:54 | 34.74705 | 137.65097 | 18267 ft | 390 kts | 260° |
| 2026-05-01 13:54 | 34.73912 | 137.61966 | 17939 ft | 388 kts | 260° |
| 2026-05-01 13:54 | 34.73118 | 137.58836 | 17667 ft | 387 kts | 260° |
| 2026-05-01 13:54 | 34.72325 | 137.55713 | 17667 ft | 387 kts | 260° |
| 2026-05-01 13:55 | 34.71529 | 137.52581 | 17670 ft | 388 kts | 260° |
| 2026-05-01 13:55 | 34.70732 | 137.49447 | 17675 ft | 389 kts | 260° |
| 2026-05-01 13:55 | 34.69932 | 137.46307 | 17671 ft | 389 kts | 260° |
| 2026-05-01 13:55 | 34.69130 | 137.43164 | 17673 ft | 390 kts | 260° |
| 2026-05-01 13:56 | 34.68326 | 137.40017 | 17675 ft | 390 kts | 260° |
| 2026-05-01 13:56 | 34.67520 | 137.36870 | 17673 ft | 391 kts | 260° |
| 2026-05-01 13:56 | 34.66713 | 137.33717 | 17674 ft | 391 kts | 260° |
| 2026-05-01 13:56 | 34.65902 | 137.30558 | 17677 ft | 392 kts | 260° |
| 2026-05-01 13:57 | 34.65100 | 137.27437 | 17676 ft | 392 kts | 260° |
| 2026-05-01 13:57 | 34.64551 | 137.25302 | 17675 ft | 393 kts | 260° |
| 2026-05-01 13:57 | 34.63472 | 137.21109 | 17678 ft | 393 kts | 260° |
| 2026-05-01 13:57 | 34.62651 | 137.17931 | 17670 ft | 394 kts | 260° |
| 2026-05-01 13:58 | 34.61831 | 137.14757 | 17676 ft | 395 kts | 260° |
| 2026-05-01 13:58 | 34.61066 | 137.11559 | 17679 ft | 392 kts | 264° |
| 2026-05-01 13:58 | 34.60558 | 137.08319 | 17682 ft | 390 kts | 266° |
| 2026-05-01 13:58 | 34.60399 | 137.07221 | 17677 ft | 391 kts | 266° |
| 2026-05-01 13:59 | 34.60165 | 137.05621 | 17674 ft | 391 kts | 266° |
| 2026-05-01 13:59 | 34.59685 | 137.02364 | 17677 ft | 392 kts | 266° |
| 2026-05-01 13:59 | 34.59193 | 136.99109 | 17676 ft | 393 kts | 266° |
| 2026-05-01 13:59 | 34.58692 | 136.95836 | 17681 ft | 394 kts | 266° |
| 2026-05-01 14:00 | 34.58181 | 136.92561 | 17684 ft | 396 kts | 265° |
| 2026-05-01 14:00 | 34.57535 | 136.89304 | 17677 ft | 399 kts | 262° |
| 2026-05-01 14:00 | 34.56810 | 136.86046 | 17685 ft | 400 kts | 261° |
| 2026-05-01 14:00 | 34.56060 | 136.82790 | 17687 ft | 401 kts | 261° |
| 2026-05-01 14:01 | 34.55306 | 136.79526 | 17679 ft | 402 kts | 261° |
| 2026-05-01 14:01 | 34.54556 | 136.76262 | 17686 ft | 402 kts | 261° |
| 2026-05-01 14:01 | 34.53810 | 136.72989 | 17686 ft | 403 kts | 261° |
| 2026-05-01 14:01 | 34.53069 | 136.69717 | 17687 ft | 403 kts | 261° |
| 2026-05-01 14:02 | 34.52329 | 136.66439 | 17689 ft | 403 kts | 261° |
| 2026-05-01 14:02 | 34.51588 | 136.63155 | 17701 ft | 404 kts | 261° |
| 2026-05-01 14:02 | 34.50847 | 136.59864 | 17695 ft | 405 kts | 261° |
| 2026-05-01 14:02 | 34.50104 | 136.56569 | 17692 ft | 405 kts | 260° |
| 2026-05-01 14:03 | 34.49360 | 136.53275 | 17705 ft | 406 kts | 260° |
| 2026-05-01 14:03 | 34.48612 | 136.49962 | 17701 ft | 407 kts | 260° |
| 2026-05-01 14:03 | 34.47862 | 136.46646 | 17703 ft | 408 kts | 260° |
| 2026-05-01 14:03 | 34.47110 | 136.43327 | 17695 ft | 409 kts | 259° |
| 2026-05-01 14:04 | 34.46355 | 136.39999 | 17704 ft | 410 kts | 259° |
| 2026-05-01 14:04 | 34.45595 | 136.36660 | 17685 ft | 411 kts | 259° |
| 2026-05-01 14:04 | 34.44834 | 136.33335 | 17710 ft | 408 kts | 259° |
| 2026-05-01 14:04 | 34.44335 | 136.31142 | 17714 ft | 408 kts | 259° |
| 2026-05-01 14:05 | 34.43338 | 136.26745 | 17722 ft | 408 kts | 259° |
| 2026-05-01 14:05 | 34.42580 | 136.23427 | 17712 ft | 409 kts | 259° |
| 2026-05-01 14:05 | 34.41818 | 136.20116 | 17719 ft | 408 kts | 259° |
| 2026-05-01 14:05 | 34.41057 | 136.16804 | 17740 ft | 408 kts | 259° |
| 2026-05-01 14:06 | 34.40297 | 136.13494 | 17744 ft | 408 kts | 259° |
| 2026-05-01 14:06 | 34.39536 | 136.10187 | 17736 ft | 408 kts | 259° |
| 2026-05-01 14:06 | 34.38773 | 136.06874 | 17749 ft | 408 kts | 259° |
| 2026-05-01 14:06 | 34.38013 | 136.03570 | 17734 ft | 407 kts | 259° |
| 2026-05-01 14:07 | 34.37258 | 136.00287 | 17692 ft | 401 kts | 259° |
| 2026-05-01 14:07 | 34.36515 | 135.97090 | 17571 ft | 390 kts | 259° |
| 2026-05-01 14:07 | 34.35788 | 135.93963 | 17206 ft | 383 kts | 259° |
| 2026-05-01 14:08 | 34.34376 | 135.87864 | 16246 ft | 370 kts | 260° |
| 2026-05-01 14:08 | 34.33684 | 135.84889 | 15730 ft | 365 kts | 260° |
| 2026-05-01 14:08 | 34.32999 | 135.81942 | 15222 ft | 361 kts | 260° |
| 2026-05-01 14:08 | 34.32320 | 135.79033 | 14714 ft | 357 kts | 260° |
| 2026-05-01 14:09 | 34.31661 | 135.76207 | 14236 ft | 354 kts | 260° |
| 2026-05-01 14:09 | 34.30996 | 135.73354 | 13755 ft | 351 kts | 260° |
| 2026-05-01 14:09 | 34.30337 | 135.70526 | 13214 ft | 348 kts | 260° |
| 2026-05-01 14:09 | 34.29684 | 135.67720 | 12697 ft | 345 kts | 260° |
| 2026-05-01 14:10 | 34.29035 | 135.64944 | 12207 ft | 341 kts | 260° |
| 2026-05-01 14:10 | 34.28392 | 135.62197 | 11712 ft | 338 kts | 260° |
| 2026-05-01 14:10 | 34.27754 | 135.59481 | 11250 ft | 334 kts | 260° |
| 2026-05-01 14:10 | 34.27123 | 135.56795 | 10803 ft | 331 kts | 260° |
| 2026-05-01 14:11 | 34.26498 | 135.54141 | 10491 ft | 324 kts | 260° |
| 2026-05-01 14:11 | 34.25422 | 135.49594 | 10231 ft | 303 kts | 261° |
| 2026-05-01 14:11 | 34.24853 | 135.47188 | 10112 ft | 293 kts | 261° |
| 2026-05-01 14:12 | 34.24303 | 135.44862 | 9962 ft | 282 kts | 261° |
| 2026-05-01 14:12 | 34.23772 | 135.42635 | 9841 ft | 270 kts | 262° |
| 2026-05-01 14:12 | 34.23268 | 135.40500 | 9689 ft | 258 kts | 263° |
| 2026-05-01 14:12 | 34.22787 | 135.38450 | 9496 ft | 252 kts | 263° |
| 2026-05-01 14:13 | 34.22317 | 135.36445 | 9194 ft | 251 kts | 262° |
| 2026-05-01 14:13 | 34.22043 | 135.35079 | 8887 ft | 243 kts | 272° |
| 2026-05-01 14:13 | 34.22341 | 135.32477 | 8219 ft | 237 kts | 288° |
| 2026-05-01 14:13 | 34.22689 | 135.30522 | 7873 ft | 238 kts | 287° |
| 2026-05-01 14:14 | 34.23205 | 135.28670 | 7388 ft | 231 kts | 300° |
| 2026-05-01 14:14 | 34.23711 | 135.27546 | 7111 ft | 228 kts | 303° |
| 2026-05-01 14:14 | 34.24745 | 135.25386 | 6654 ft | 217 kts | 303° |
| 2026-05-01 14:14 | 34.25491 | 135.23809 | 6147 ft | 216 kts | 303° |
| 2026-05-01 14:15 | 34.25979 | 135.22764 | 5813 ft | 215 kts | 302° |
| 2026-05-01 14:15 | 34.26699 | 135.21197 | 5294 ft | 212 kts | 302° |
| 2026-05-01 14:15 | 34.27636 | 135.19131 | 4616 ft | 207 kts | 301° |
| 2026-05-01 14:15 | 34.28319 | 135.17619 | 4086 ft | 203 kts | 301° |
| 2026-05-01 14:16 | 34.28763 | 135.16629 | 3756 ft | 202 kts | 300° |
| 2026-05-01 14:16 | 34.29432 | 135.15142 | 3310 ft | 202 kts | 299° |
| 2026-05-01 14:16 | 34.30110 | 135.13643 | 2778 ft | 204 kts | 301° |
| 2026-05-01 14:16 | 34.31142 | 135.12496 | 2228 ft | 208 kts | 335° |
| 2026-05-01 14:17 | 34.32525 | 135.12376 | 2216 ft | 200 kts | 1° |
| 2026-05-01 14:17 | 34.33821 | 135.12870 | 2249 ft | 192 kts | 16° |
| 2026-05-01 14:17 | 34.34982 | 135.13668 | 2010 ft | 190 kts | 24° |
| 2026-05-01 14:17 | 34.35971 | 135.14665 | 1763 ft | 180 kts | 34° |
| 2026-05-01 14:18 | 34.36815 | 135.15695 | 1530 ft | 169 kts | 37° |
| 2026-05-01 14:18 | 34.37513 | 135.16671 | 1334 ft | 159 kts | 41° |
| 2026-05-01 14:18 | 34.38199 | 135.17684 | 1162 ft | 156 kts | 42° |
| 2026-05-01 14:18 | 34.38890 | 135.18706 | 930 ft | 157 kts | 45° |
| 2026-05-01 14:19 | 34.39588 | 135.19744 | 707 ft | 161 kts | 47° |
| 2026-05-01 14:19 | 34.40302 | 135.20807 | 514 ft | 164 kts | 45° |
| 2026-05-01 14:19 | 34.41023 | 135.21883 | 312 ft | 163 kts | 45° |
| 2026-05-01 14:19 | 34.41718 | 135.22903 | 60 ft | 152 kts | 46° |
| 2026-05-01 14:20 | 34.42325 | 135.23805 | 19 ft | 115 kts | 50° |
| 2026-05-01 14:20 | 34.43039 | 135.24513 | 26 ft | 17 kts | 353° |
| 2026-05-01 14:20 | 34.43135 | 135.24425 | 28 ft | 19 kts | 302° |
| 2026-05-01 14:21 | 34.43225 | 135.24306 | 28 ft | 0 kts | 320° |